Time;durP1;ratioP1;P1;durP2;ratioP2;P2;SDS_P1;SDS_P2;PMS_P1;PMS_P2;Temp;Humidity;BMP_temperature;BMP_pressure;BME280_temperature;BME280_humidity;BME280_pressure;Samples;Min_cycle;Max_cycle;Signal;HPM_P1;HPM_P2
2022/08/06 00:01:05;;;;;;;6.08;4.40;;;;;;;20.89;72.20;101278.78;1687698;83;21062;-89
2022/08/06 00:03:32;;;;;;;5.40;3.85;;;;;;;20.76;71.96;101274.89;1678831;84;21091;-89
2022/08/06 00:05:59;;;;;;;8.60;3.70;;;;;;;20.67;71.99;101276.77;1677443;85;21317;-89
2022/08/06 00:08:25;;;;;;;5.67;3.95;;;;;;;20.53;71.98;101281.75;1677838;85;21841;-89
2022/08/06 00:10:58;;;;;;;4.70;3.62;;;;;;;20.52;72.23;101283.09;1677015;85;21558;-89
2022/08/06 00:13:48;;;;;;;7.67;4.62;;;;;;;20.47;72.23;101280.89;1677596;85;21541;-88
2022/08/06 00:16:15;;;;;;;8.08;4.30;;;;;;;20.38;72.38;101293.45;1654093;85;21205;-89
2022/08/06 00:18:42;;;;;;;5.25;4.28;;;;;;;20.30;72.42;101288.58;1677707;85;21028;-88
2022/08/06 00:21:18;;;;;;;6.70;4.12;;;;;;;20.32;72.52;101300.14;1651978;85;21766;-88
2022/08/06 00:23:45;;;;;;;5.95;3.75;;;;;;;20.29;72.56;101296.17;1644484;86;21148;-89
2022/08/06 00:26:21;;;;;;;8.90;4.05;;;;;;;20.23;72.50;101285.50;1662265;85;21044;-88
2022/08/06 00:29:05;;;;;;;5.53;3.80;;;;;;;20.21;72.50;101289.97;1718661;82;21005;-89
2022/08/06 00:31:32;;;;;;;3.87;3.22;;;;;;;20.20;72.45;101281.53;1717178;83;21085;-88
2022/08/06 00:34:02;;;;;;;5.90;4.00;;;;;;;20.18;72.50;101280.66;1717167;83;22413;-89
2022/08/06 00:36:27;;;;;;;4.97;3.17;;;;;;;20.19;72.48;101290.43;1716903;83;21001;-89
2022/08/06 00:38:54;;;;;;;6.95;3.67;;;;;;;20.21;72.49;101292.64;1717086;82;21112;-89
2022/08/06 00:41:30;;;;;;;4.60;3.30;;;;;;;20.21;72.64;101303.33;1716775;82;21269;-89
2022/08/06 00:44:02;;;;;;;8.50;3.40;;;;;;;20.20;72.44;101309.59;1717047;83;21069;-89
2022/08/06 00:46:29;;;;;;;3.90;2.90;;;;;;;20.20;72.33;101309.59;1717005;83;22472;-89
2022/08/06 00:48:59;;;;;;;4.97;2.90;;;;;;;20.19;72.22;101311.81;1717046;83;21017;-89
2022/08/06 00:51:26;;;;;;;7.12;4.37;;;;;;;20.15;72.09;101309.60;1717170;83;21058;-89
2022/08/06 00:54:07;;;;;;;7.80;3.10;;;;;;;20.13;72.05;101313.20;1717536;82;21025;-89
2022/08/06 00:56:33;;;;;;;5.70;3.00;;;;;;;20.14;72.00;101327.89;1741021;82;21078;-89
2022/08/06 00:59:00;;;;;;;5.58;2.80;;;;;;;20.14;71.94;101321.63;1740668;82;21791;-88
2022/08/06 01:01:34;;;;;;;4.87;3.10;;;;;;;20.13;71.74;101318.54;1690159;83;21103;-89
2022/08/06 01:07:18;;;;;;;5.70;2.33;;;;;;;20.00;71.60;101321.72;1657331;86;20274;-88
2022/08/06 01:09:44;;;;;;;7.92;2.52;;;;;;;19.94;71.65;101327.98;1657593;86;21086;-88
2022/08/06 01:12:30;;;;;;;5.25;2.37;;;;;;;19.94;71.72;101326.64;1657735;86;21749;-89
2022/08/06 01:14:57;;;;;;;7.80;2.77;;;;;;;19.92;71.67;101333.78;1657626;86;21127;-89
2022/08/06 01:17:57;;;;;;;12.15;2.92;;;;;;;19.93;71.87;101331.98;1657517;86;21058;-89
2022/08/06 01:20:48;;;;;;;8.15;3.52;;;;;;;19.94;71.70;101333.32;1657401;86;21717;-87
2022/08/06 01:23:38;;;;;;;5.72;2.30;;;;;;;19.90;71.69;101319.55;1678498;85;21171;-88
2022/08/06 01:27:02;;;;;;;6.78;2.90;;;;;;;19.90;71.76;101320.88;1684337;85;21798;-88
2022/08/06 01:29:36;;;;;;;7.60;2.40;;;;;;;19.94;71.83;101329.77;1685352;85;21107;-87
2022/08/06 01:32:17;;;;;;;6.22;2.40;;;;;;;19.97;71.81;101337.33;1679974;85;21088;-89
2022/08/06 01:34:53;;;;;;;7.20;2.35;;;;;;;19.99;71.70;101337.33;1652299;86;21049;-91
2022/08/06 01:37:48;;;;;;;5.92;2.65;;;;;;;19.98;71.61;101347.10;1682045;85;21032;-89
2022/08/06 01:40:21;;;;;;;7.60;2.30;;;;;;;19.96;71.52;101340.88;1685202;85;21789;-89
2022/08/06 01:42:48;;;;;;;4.97;2.00;;;;;;;19.93;71.38;101359.62;1684947;85;21012;-89
2022/08/06 01:45:37;;;;;;;7.60;2.22;;;;;;;19.91;71.32;101355.16;1685186;85;21795;-89
2022/08/06 01:48:26;;;;;;;9.38;2.35;;;;;;;19.88;71.26;101352.52;1657270;86;21107;-89
2022/08/06 01:51:07;;;;;;;5.67;1.98;;;;;;;19.83;71.29;101369.00;1657437;86;21090;-89
2022/08/06 01:53:40;;;;;;;7.45;2.22;;;;;;;19.83;71.44;101381.90;1657511;86;21804;-90
2022/08/06 01:56:07;;;;;;;4.10;2.02;;;;;;;19.82;71.33;101377.47;1666979;84;21075;-82
2022/08/06 01:58:39;;;;;;;3.67;1.95;;;;;;;19.83;71.33;101367.66;1698677;83;21041;-82
2022/08/06 02:01:09;;;;;;;6.78;2.00;;;;;;;19.84;71.13;101377.02;1691386;84;21095;-82
2022/08/06 02:03:48;;;;;;;5.12;1.80;;;;;;;19.81;70.84;101375.22;1679449;83;21156;-82
2022/08/06 02:06:21;;;;;;;4.05;1.90;;;;;;;19.77;70.71;101379.26;1670023;85;23252;-81
2022/08/06 02:08:48;;;;;;;4.95;1.62;;;;;;;19.73;70.75;101385.51;1661455;85;21100;-82
2022/08/06 02:11:14;;;;;;;6.03;1.67;;;;;;;19.65;70.55;101392.59;1681172;84;21098;-82
2022/08/06 02:13:41;;;;;;;4.42;1.70;;;;;;;19.51;70.10;101400.64;1708667;82;21070;-82
2022/08/06 02:16:09;;;;;;;8.45;1.47;;;;;;;19.37;70.05;101401.98;1722446;82;21070;-82
2022/08/06 02:18:37;;;;;;;4.40;1.40;;;;;;;19.26;69.84;101414.44;1714857;82;21770;-82
2022/08/06 02:21:08;;;;;;;7.67;1.95;;;;;;;19.10;69.77;101417.56;1718881;82;21040;-82
2022/08/06 02:23:35;;;;;;;4.85;1.60;;;;;;;19.00;69.91;101419.34;1709447;82;21103;-82
2022/08/06 02:26:01;;;;;;;3.98;1.35;;;;;;;18.92;70.09;101430.43;1733538;82;21067;-81
2022/08/06 02:28:29;;;;;;;3.33;1.65;;;;;;;18.83;70.26;101428.66;1726159;82;21090;-82
2022/08/06 02:30:57;;;;;;;6.50;1.20;;;;;;;18.77;70.32;101420.59;1728662;82;22350;-82
2022/08/06 02:33:24;;;;;;;6.03;1.20;;;;;;;18.75;70.46;101426.37;1718479;81;21709;-82
2022/08/06 02:36:22;;;;;;;3.33;1.40;;;;;;;18.77;70.53;101418.84;1708119;82;21079;-84
2022/08/06 02:39:09;;;;;;;5.67;1.42;;;;;;;18.79;70.38;101415.73;1711318;82;21094;-81
2022/08/06 02:41:43;;;;;;;3.72;1.62;;;;;;;18.81;70.20;101418.44;1718100;82;21039;-81
2022/08/06 02:44:23;;;;;;;;;;;;;;;18.75;69.83;101405.95;1724214;82;21744;-83
2022/08/06 02:47:00;;;;;;;4.72;1.32;;;;;;;18.73;69.69;101400.14;1731293;82;20783;-82
2022/08/06 02:49:28;;;;;;;3.85;1.85;;;;;;;18.65;69.44;101405.47;1731491;81;21126;-81
2022/08/06 02:51:58;;;;;;;3.95;0.90;;;;;;;18.58;69.12;101404.58;1722968;82;21122;-80
2022/08/06 02:54:36;;;;;;;3.90;1.35;;;;;;;18.52;69.03;101417.87;1731236;82;21621;-81
2022/08/06 02:57:06;;;;;;;2.35;0.93;;;;;;;18.51;69.14;101408.56;1729945;82;21860;-81
2022/08/06 02:59:37;;;;;;;3.30;0.85;;;;;;;18.53;68.97;101422.78;1711174;82;21548;-81
2022/08/06 03:02:04;;;;;;;2.35;1.22;;;;;;;18.47;68.84;101427.66;1711952;82;21090;-81
2022/08/06 03:04:31;;;;;;;4.92;1.10;;;;;;;18.43;68.82;101433.83;1710480;82;21070;-81
2022/08/06 03:07:00;;;;;;;6.08;1.22;;;;;;;18.41;68.76;101425.86;1729637;82;21075;-81
2022/08/06 03:09:26;;;;;;;3.17;1.37;;;;;;;18.39;68.75;101433.37;1728208;82;21761;-81
2022/08/06 03:11:53;;;;;;;7.60;1.32;;;;;;;18.37;68.64;101435.16;1693760;84;21115;-82
2022/08/06 03:14:20;;;;;;;5.60;1.20;;;;;;;18.36;68.76;101438.27;1659078;84;21094;-81
2022/08/06 03:16:47;;;;;;;2.65;1.20;;;;;;;18.37;68.68;101444.48;1657953;84;21075;-82
2022/08/06 03:19:13;;;;;;;2.72;0.93;;;;;;;18.35;68.73;101450.25;1633842;87;21104;-81
2022/08/06 03:21:41;;;;;;;4.35;1.20;;;;;;;18.34;68.73;101460.03;1730366;82;22783;-89
2022/08/06 03:24:08;;;;;;;2.72;1.07;;;;;;;18.36;68.83;101459.59;1730971;82;21079;-89
2022/08/06 03:26:36;;;;;;;4.92;1.10;;;;;;;18.34;68.70;101440.45;1730802;82;21075;-89
2022/08/06 03:29:23;;;;;;;3.95;1.37;;;;;;;18.31;68.72;101432.47;1730970;82;21059;-89
2022/08/06 03:31:51;;;;;;;6.33;1.42;;;;;;;18.29;68.71;101448.45;1730820;82;21067;-89
2022/08/06 03:34:29;;;;;;;3.77;1.17;;;;;;;18.28;68.81;101458.65;1730996;82;22668;-89
2022/08/06 03:36:56;;;;;;;5.20;1.17;;;;;;;18.28;68.76;101471.09;1731502;81;21017;-81
2022/08/06 03:39:24;;;;;;;3.80;0.93;;;;;;;18.27;68.83;101471.54;1680084;85;21075;-81
2022/08/06 03:41:51;;;;;;;9.18;1.30;;;;;;;18.28;68.81;101475.09;1695862;84;21092;-81
2022/08/06 03:44:18;;;;;;;3.98;1.20;;;;;;;18.30;68.79;101485.31;1680144;84;21155;-81
2022/08/06 03:47:06;;;;;;;4.05;1.00;;;;;;;18.25;68.65;101487.97;1675167;84;22559;-81
2022/08/06 03:49:43;;;;;;;2.75;1.00;;;;;;;18.28;68.70;101491.96;1695577;84;21060;-81
2022/08/06 03:52:14;;;;;;;2.40;0.90;;;;;;;18.26;68.47;101495.06;1656892;83;21216;-81
2022/08/06 03:54:46;;;;;;;4.42;1.00;;;;;;;18.22;68.39;101495.48;1625613;87;21095;-81
2022/08/06 03:57:16;;;;;;;4.97;2.35;;;;;;;18.19;68.35;101510.59;1680137;84;21072;-81
2022/08/06 03:59:44;;;;;;;3.00;0.98;;;;;;;18.22;68.40;101515.92;1644216;86;21878;-81
2022/08/06 04:02:11;;;;;;;2.35;1.00;;;;;;;18.23;68.31;101523.05;1663250;85;21108;-89
2022/08/06 04:04:54;;;;;;;1.87;0.80;;;;;;;18.23;68.33;101518.59;1758696;81;21021;-89
2022/08/06 04:07:21;;;;;;;2.42;0.98;;;;;;;18.23;68.31;101523.05;1759585;81;21059;-88
2022/08/06 04:09:48;;;;;;;7.08;1.20;;;;;;;18.22;68.21;101522.58;1758269;81;21055;-81
2022/08/06 04:12:14;;;;;;;2.55;1.02;;;;;;;18.19;68.17;101523.47;1723435;81;23017;-81
2022/08/06 04:14:41;;;;;;;2.80;1.00;;;;;;;18.13;68.04;101526.10;1711881;81;21055;-81
2022/08/06 04:17:08;;;;;;;3.65;1.20;;;;;;;18.10;68.22;101517.20;1664490;85;21086;-81
2022/08/06 04:19:35;;;;;;;3.08;0.90;;;;;;;18.06;68.18;101518.95;1706640;83;21055;-81
2022/08/06 04:22:02;;;;;;;4.05;1.27;;;;;;;18.04;68.06;101529.59;1750577;80;21080;-81
2022/08/06 04:24:29;;;;;;;3.22;1.00;;;;;;;18.04;68.15;101534.91;1658958;85;21702;-81
2022/08/06 04:26:55;;;;;;;3.02;0.90;;;;;;;18.04;68.12;101545.57;1690710;84;21126;-81
2022/08/06 04:29:22;;;;;;;4.60;1.37;;;;;;;18.02;68.08;101554.00;1693578;84;21121;-81
2022/08/06 04:31:50;;;;;;;4.03;1.15;;;;;;;17.97;68.06;101551.73;1678946;85;21083;-81
2022/08/06 04:34:23;;;;;;;6.17;1.25;;;;;;;17.99;68.18;101568.61;1649713;84;21655;-81
2022/08/06 04:36:51;;;;;;;4.33;1.00;;;;;;;18.03;68.22;101569.08;1693405;83;21719;-81
2022/08/06 04:39:18;;;;;;;1.92;0.98;;;;;;;18.10;68.15;101574.48;1678650;84;21104;-81
2022/08/06 04:41:45;;;;;;;4.33;1.62;;;;;;;18.16;68.13;101566.07;1677512;83;21063;-81
2022/08/06 04:44:12;;;;;;;5.17;1.10;;;;;;;18.35;68.11;101578.19;1683213;84;21072;-81
2022/08/06 04:46:38;;;;;;;3.87;1.30;;;;;;;18.44;67.58;101578.24;1675596;84;21072;-81
2022/08/06 04:49:05;;;;;;;3.25;1.25;;;;;;;18.41;67.33;101581.80;1687781;83;21829;-81
2022/08/06 04:51:32;;;;;;;7.15;0.98;;;;;;;18.41;67.38;101585.80;1695934;83;21651;-81
2022/08/06 04:53:58;;;;;;;3.55;1.00;;;;;;;18.44;67.19;101583.13;1747045;81;21151;-81
2022/08/06 04:56:25;;;;;;;3.90;2.25;;;;;;;18.45;67.15;101590.25;1683879;84;21652;-81
2022/08/06 04:58:52;;;;;;;2.98;1.05;;;;;;;18.50;67.05;101598.27;1739431;80;21067;-81
2022/08/06 05:01:19;;;;;;;1.30;0.90;;;;;;;18.55;66.85;101594.31;1673996;84;23307;-81
2022/08/06 05:03:45;;;;;;;3.08;0.85;;;;;;;18.56;66.59;101606.32;1681867;84;21126;-81
2022/08/06 05:06:23;;;;;;;4.00;0.93;;;;;;;18.59;66.54;101604.98;1684822;84;21063;-81
2022/08/06 05:08:57;;;;;;;2.87;1.55;;;;;;;18.65;66.44;101609.45;1670394;83;21627;-81
2022/08/06 05:11:34;;;;;;;4.72;1.25;;;;;;;18.78;66.38;101615.30;1688102;83;21127;-81
2022/08/06 05:14:08;;;;;;;3.90;1.17;;;;;;;18.96;66.34;101619.00;1751125;80;21769;-81
2022/08/06 05:16:39;;;;;;;3.05;1.70;;;;;;;19.16;65.98;101627.05;1716593;81;21067;-89
2022/08/06 05:19:11;;;;;;;3.60;2.15;;;;;;;19.47;65.92;101627.16;1727899;81;21035;-89
2022/08/06 05:21:41;;;;;;;4.85;2.52;;;;;;;19.91;65.54;101617.00;1746089;82;21559;-89
2022/08/06 05:24:08;;;;;;;3.00;1.65;;;;;;;20.17;64.72;101613.86;1731684;82;21015;-89
2022/08/06 05:26:35;;;;;;;3.72;1.10;;;;;;;20.49;64.58;101620.06;1708540;83;22559;-89
2022/08/06 05:29:10;;;;;;;2.00;1.15;;;;;;;21.37;64.62;101613.94;1719971;82;21055;-89
2022/08/06 05:31:49;;;;;;;2.10;0.93;;;;;;;21.87;63.00;101615.42;1730451;82;21001;-89
2022/08/06 05:34:31;;;;;;;1.92;0.85;;;;;;;22.05;62.03;101621.05;1721772;83;21109;-89
2022/08/06 05:36:58;;;;;;;2.17;1.50;;;;;;;22.37;61.86;101622.58;1739343;82;21083;-89
2022/08/06 05:39:34;;;;;;;1.95;1.07;;;;;;;22.62;60.45;101621.02;1731182;82;21804;-89
2022/08/06 05:42:01;;;;;;;4.83;1.85;;;;;;;22.75;59.91;101627.09;1715210;82;21090;-89
2022/08/06 05:44:43;;;;;;;3.72;1.05;;;;;;;22.64;59.19;101636.18;1710241;83;21118;-89
2022/08/06 05:47:13;;;;;;;5.67;1.75;;;;;;;22.53;59.19;101645.26;1746407;82;21645;-89
2022/08/06 05:49:47;;;;;;;2.15;0.90;;;;;;;22.31;58.37;101647.67;1746444;82;21680;-89
2022/08/06 05:52:37;;;;;;;;;;;;;;;22.14;58.72;101648.25;1748960;82;21809;-89
2022/08/06 05:55:27;;;;;;;1.32;0.88;;;;;;;21.93;58.01;101650.67;1746226;82;20868;-89
2022/08/06 05:58:01;;;;;;;2.20;1.17;;;;;;;21.74;57.95;101649.91;1701555;83;21063;-89
2022/08/06 06:00:32;;;;;;;3.30;1.27;;;;;;;21.52;58.14;101649.16;1650779;86;21149;-89
2022/08/06 06:03:00;;;;;;;2.42;1.00;;;;;;;21.49;58.47;101643.80;1713135;83;21102;-89
2022/08/06 06:05:27;;;;;;;3.83;1.10;;;;;;;21.44;58.32;101653.22;1712828;82;21779;-89
2022/08/06 06:07:55;;;;;;;3.05;1.00;;;;;;;21.36;58.03;101653.69;1713123;83;21270;-89
2022/08/06 06:10:26;;;;;;;3.85;1.42;;;;;;;21.20;58.12;101651.98;1727812;82;21142;-90
2022/08/06 06:12:53;;;;;;;4.10;1.17;;;;;;;21.16;58.23;101657.80;1685487;84;21079;-89
2022/08/06 06:15:37;;;;;;;1.15;0.75;;;;;;;21.16;58.21;101660.47;1711970;83;21100;-89
2022/08/06 06:18:11;;;;;;;1.72;0.90;;;;;;;21.17;58.26;101666.25;1738076;81;22749;-81
2022/08/06 06:21:05;;;;;;;3.40;1.27;;;;;;;21.30;58.29;101671.11;1734386;82;21066;-82
2022/08/06 06:23:46;;;;;;;3.55;1.30;;;;;;;21.42;58.23;101667.05;1728475;82;21119;-81
2022/08/06 06:26:30;;;;;;;1.77;1.10;;;;;;;21.48;58.07;101676.41;1722335;82;21086;-81
2022/08/06 06:29:34;;;;;;;5.92;2.00;;;;;;;21.49;57.74;101679.55;1687376;82;21721;-81
2022/08/06 06:32:15;;;;;;;4.90;1.50;;;;;;;21.52;57.81;101683.98;1683633;84;21821;-81
2022/08/06 06:35:15;;;;;;;1.92;1.00;;;;;;;21.55;57.70;101675.48;1670689;85;21075;-81
2022/08/06 06:38:02;;;;;;;2.65;0.90;;;;;;;21.63;57.33;101694.19;1731435;81;21058;-81
2022/08/06 06:40:55;;;;;;;3.47;1.50;;;;;;;21.61;57.58;101691.97;1683071;82;22267;-83
2022/08/06 06:43:36;;;;;;;2.20;0.93;;;;;;;21.73;57.47;101689.23;1660565;84;21596;-81
2022/08/06 06:46:11;;;;;;;5.70;1.00;;;;;;;21.94;57.30;101684.59;1719674;82;21763;-81
2022/08/06 06:48:48;;;;;;;2.75;1.00;;;;;;;21.94;57.30;101684.59;1730142;82;21067;-82
2022/08/06 06:51:22;;;;;;;1.12;0.80;;;;;;;22.10;57.07;101682.70;1684601;82;21071;-81
2022/08/06 06:53:51;;;;;;;2.50;0.90;;;;;;;22.20;56.82;101690.22;1690447;83;21661;-81
2022/08/06 06:56:24;;;;;;;6.22;1.00;;;;;;;22.28;56.58;101689.30;1691469;84;21143;-81
2022/08/06 06:59:01;;;;;;;2.65;1.15;;;;;;;22.26;56.01;101693.78;1703282;83;21730;-81
2022/08/06 07:01:30;;;;;;;3.80;1.95;;;;;;;22.26;55.92;101691.53;1697341;83;21127;-81
2022/08/06 07:04:02;;;;;;;3.90;0.93;;;;;;;22.31;55.75;101682.54;1673483;85;21558;-82
2022/08/06 07:06:30;;;;;;;3.72;1.12;;;;;;;22.41;55.61;101688.73;1722374;82;21052;-82
2022/08/06 07:08:57;;;;;;;3.00;1.00;;;;;;;22.43;55.30;101690.95;1710543;83;21059;-88
2022/08/06 07:11:26;;;;;;;1.75;0.88;;;;;;;22.50;54.94;101694.45;1680242;84;21798;-89
2022/08/06 07:13:52;;;;;;;3.58;1.02;;;;;;;22.37;54.35;101693.67;1690638;84;21099;-89
2022/08/06 07:16:22;;;;;;;3.50;0.80;;;;;;;22.35;54.67;101702.64;1681546;83;21060;-89
2022/08/06 07:19:11;;;;;;;3.75;1.47;;;;;;;22.39;54.29;101698.59;1726460;82;21048;-90
2022/08/06 07:21:40;;;;;;;3.58;1.32;;;;;;;22.35;54.19;101710.23;1664486;84;21036;-88
2022/08/06 07:24:15;;;;;;;5.62;1.12;;;;;;;22.41;54.28;101705.27;1647277;86;21871;-90
2022/08/06 07:27:07;;;;;;;1.72;1.10;;;;;;;22.41;53.87;101711.54;1729266;82;21274;-91
2022/08/06 07:29:34;;;;;;;3.02;1.40;;;;;;;22.36;53.63;101713.83;1737344;81;21044;-91
2022/08/06 07:32:09;;;;;;;5.03;0.90;;;;;;;22.40;53.85;101718.25;1690739;84;21032;-91
2022/08/06 07:34:48;;;;;;;3.95;1.10;;;;;;;22.47;53.59;101712.81;1690320;84;21124;-90
2022/08/06 07:37:17;;;;;;;6.28;1.02;;;;;;;22.50;53.54;101710.55;1691139;84;22626;-89
2022/08/06 07:39:44;;;;;;;3.08;0.90;;;;;;;22.52;53.09;101716.78;1671564;84;21100;-88
2022/08/06 07:42:15;;;;;;;3.95;1.00;;;;;;;22.58;53.01;101715.84;1688480;84;21103;-89
2022/08/06 07:44:44;;;;;;;4.65;1.25;;;;;;;22.69;52.64;101721.98;1644088;86;21044;-88
2022/08/06 07:47:16;;;;;;;2.33;0.80;;;;;;;22.69;52.49;101716.20;1643832;87;21099;-89
2022/08/06 07:49:44;;;;;;;2.62;1.32;;;;;;;22.78;52.26;101727.27;1643528;86;39962;-91
2022/08/06 07:52:15;;;;;;;4.85;2.37;;;;;;;22.83;52.09;101721.41;1663089;85;21079;-89
2022/08/06 07:54:41;;;;;;;2.27;1.50;;;;;;;22.84;52.05;101725.89;1646101;85;21112;-90
2022/08/06 07:57:08;;;;;;;3.25;1.00;;;;;;;22.97;52.19;101736.48;1644786;85;21050;-90
2022/08/06 07:59:35;;;;;;;3.27;0.78;;;;;;;23.07;51.92;101742.23;1669606;85;21008;-90
2022/08/06 08:02:04;;;;;;;3.98;1.25;;;;;;;23.17;51.63;101744.36;1664823;85;21811;-90
2022/08/06 08:07:44;;;;;;;5.90;1.98;;;;;;;23.43;51.60;101746.27;1651204;86;21047;-91
2022/08/06 08:10:14;;;;;;;3.85;2.75;;;;;;;23.46;50.81;101741.30;1650254;86;21095;-90
2022/08/06 08:12:41;;;;;;;4.62;2.30;;;;;;;23.48;51.11;101750.23;1659162;86;21056;-90
2022/08/06 08:15:08;;;;;;;2.17;1.77;;;;;;;23.54;50.65;101754.63;1674721;85;21812;-90
2022/08/06 08:17:55;;;;;;;5.90;2.37;;;;;;;23.35;50.56;101753.55;1677253;85;21012;-91
2022/08/06 08:20:30;;;;;;;4.70;1.80;;;;;;;23.21;50.56;101763.55;1676437;85;21067;-90
2022/08/06 08:23:12;;;;;;;3.50;1.80;;;;;;;23.01;50.25;101775.38;1677813;85;21119;-90
2022/08/06 08:25:39;;;;;;;4.33;1.40;;;;;;;22.77;50.79;101779.62;1654321;85;21083;-90
2022/08/06 08:28:06;;;;;;;2.45;1.00;;;;;;;22.73;51.05;101781.47;1675589;85;21747;-91
2022/08/06 08:30:33;;;;;;;3.70;1.20;;;;;;;22.54;50.43;101800.84;1675238;84;21084;-88
2022/08/06 08:33:00;;;;;;;4.95;1.55;;;;;;;22.42;51.23;101791.10;1625905;85;21566;-82
2022/08/06 08:35:27;;;;;;;30.02;21.35;;;;;;;22.59;51.17;101799.47;1647634;85;21476;-81
2022/08/06 08:37:53;;;;;;;7.15;3.52;;;;;;;22.61;50.85;101794.52;1667443;85;21612;-81
2022/08/06 08:40:22;;;;;;;3.95;1.60;;;;;;;22.67;50.81;101794.50;1661516;85;22602;-81
2022/08/06 08:42:53;;;;;;;6.50;3.98;;;;;;;22.65;50.59;101798.07;1656004;85;21127;-81
2022/08/06 08:45:18;;;;;;;6.20;1.75;;;;;;;22.65;50.98;101804.78;1653393;85;21155;-81
2022/08/06 08:47:48;;;;;;;2.40;1.47;;;;;;;22.74;50.84;101807.85;1661313;85;21071;-81
2022/08/06 08:50:15;;;;;;;3.90;1.30;;;;;;;22.70;50.77;101801.16;1663879;85;21130;-82
2022/08/06 08:52:44;;;;;;;2.58;1.12;;;;;;;22.83;50.88;101805.97;1668381;84;21753;-82
2022/08/06 08:55:12;;;;;;;2.50;1.10;;;;;;;22.87;50.65;101810.40;1665703;84;21086;-81
2022/08/06 08:57:38;;;;;;;3.05;1.60;;;;;;;22.75;50.49;101807.84;1661262;84;21466;-81
2022/08/06 09:00:07;;;;;;;3.20;1.10;;;;;;;22.68;50.59;101818.19;1666059;85;21095;-81
2022/08/06 09:02:36;;;;;;;4.92;2.10;;;;;;;22.69;50.88;101810.13;1666921;85;22256;-81
2022/08/06 09:05:03;;;;;;;3.05;1.55;;;;;;;22.78;50.89;101815.84;1651991;84;22389;-81
2022/08/06 09:07:31;;;;;;;4.60;1.57;;;;;;;23.01;51.02;101813.41;1655255;84;21099;-81
2022/08/06 09:09:59;;;;;;;4.60;1.60;;;;;;;22.95;50.20;101813.01;1647439;85;21113;-81
2022/08/06 09:12:25;;;;;;;4.97;3.05;;;;;;;22.76;50.50;101817.66;1663466;85;21070;-82
2022/08/06 09:14:52;;;;;;;6.40;3.27;;;;;;;22.68;50.40;101825.78;1661781;85;21091;-81
2022/08/06 09:17:19;;;;;;;2.15;1.47;;;;;;;22.69;50.46;101821.30;1679885;85;21752;-81
2022/08/06 09:19:46;;;;;;;6.22;3.58;;;;;;;22.80;50.22;101821.20;1682923;84;21064;-89
2022/08/06 09:22:13;;;;;;;5.78;1.45;;;;;;;22.97;50.15;101816.56;1677951;84;21040;-89
2022/08/06 09:24:40;;;;;;;3.33;1.00;;;;;;;23.20;49.70;101825.80;1663573;85;21530;-89
2022/08/06 09:27:13;;;;;;;4.00;1.30;;;;;;;23.25;48.98;101835.13;1674992;85;21094;-88
2022/08/06 09:29:58;;;;;;;2.85;1.10;;;;;;;23.37;48.56;101839.05;1674786;85;22613;-90
2022/08/06 09:32:41;;;;;;;2.02;1.27;;;;;;;23.29;47.87;101846.28;1661353;86;21167;-89
2022/08/06 09:35:23;;;;;;;2.45;1.02;;;;;;;23.24;47.62;101850.83;1661674;85;21057;-87
2022/08/06 09:37:54;;;;;;;1.75;0.60;;;;;;;23.19;47.69;101855.35;1676398;85;21134;-81
2022/08/06 09:40:20;;;;;;;2.22;0.70;;;;;;;23.33;47.68;101858.80;1663783;85;21645;-81
2022/08/06 09:42:48;;;;;;;3.25;1.07;;;;;;;23.35;47.28;101858.33;1657806;85;21811;-81
2022/08/06 09:45:20;;;;;;;1.52;0.82;;;;;;;23.48;47.10;101863.09;1671866;85;21346;-89
2022/08/06 09:47:49;;;;;;;6.45;0.78;;;;;;;23.56;46.34;101863.03;1669907;85;21665;-89
2022/08/06 09:50:43;;;;;;;2.55;0.90;;;;;;;23.53;46.02;101867.09;1665545;85;21092;-89
2022/08/06 09:53:10;;;;;;;3.30;0.70;;;;;;;23.52;46.04;101863.52;1640293;84;23941;-88
2022/08/06 09:55:37;;;;;;;2.25;0.75;;;;;;;23.57;45.82;101877.77;1681546;84;21684;-88
2022/08/06 09:58:09;;;;;;;2.65;1.15;;;;;;;23.56;45.77;101877.81;1678753;85;21051;-88
2022/08/06 10:00:47;;;;;;;1.30;0.60;;;;;;;23.49;45.42;101881.01;1679854;84;21151;-89
2022/08/06 10:03:14;;;;;;;2.33;0.82;;;;;;;23.29;45.30;101895.98;1663315;84;21088;-81
2022/08/06 10:05:43;;;;;;;1.27;0.70;;;;;;;23.15;45.45;101883.15;1662114;85;21616;-81
2022/08/06 10:08:12;;;;;;;5.78;0.75;;;;;;;23.16;45.11;101895.23;1684955;84;21979;-88
2022/08/06 10:10:48;;;;;;;3.55;0.70;;;;;;;23.11;44.83;101902.42;1683887;84;21549;-90
2022/08/06 10:13:26;;;;;;;2.60;0.68;;;;;;;23.01;44.69;101901.59;1680031;85;21517;-89
2022/08/06 10:16:16;;;;;;;1.35;0.75;;;;;;;23.00;44.53;101901.13;1705230;83;21084;-89
2022/08/06 10:18:58;;;;;;;2.58;0.62;;;;;;;23.01;43.95;101899.33;1675085;85;21039;-89
2022/08/06 10:21:32;;;;;;;1.65;0.80;;;;;;;22.90;43.38;101912.86;1739679;82;22468;-89
2022/08/06 10:24:02;;;;;;;1.67;0.62;;;;;;;22.81;43.19;101917.84;1715049;82;21623;-88
2022/08/06 10:26:32;;;;;;;1.50;0.57;;;;;;;22.84;43.27;101908.86;1740096;82;21749;-87
2022/08/06 10:29:06;;;;;;;2.40;0.60;;;;;;;23.02;43.60;101906.03;1740551;82;21094;-88
2022/08/06 10:31:36;;;;;;;3.22;0.70;;;;;;;23.30;43.32;101904.48;1721920;82;21067;-87
2022/08/06 10:34:14;;;;;;;3.37;0.90;;;;;;;23.62;43.19;101901.92;1720412;82;21242;-89
2022/08/06 10:36:49;;;;;;;2.17;0.60;;;;;;;23.95;42.76;101902.45;1729089;82;21046;-90
2022/08/06 10:39:16;;;;;;;3.10;0.60;;;;;;;23.97;41.43;101910.05;1737085;82;21291;-81
2022/08/06 10:41:44;;;;;;;1.52;0.42;;;;;;;23.62;41.25;101935.52;1734157;81;21132;-82
2022/08/06 10:44:10;;;;;;;1.57;0.50;;;;;;;23.43;41.26;101928.10;1723842;81;21043;-82
2022/08/06 10:46:37;;;;;;;3.52;0.80;;;;;;;23.27;41.52;101915.25;1720223;82;21795;-81
2022/08/06 10:49:05;;;;;;;1.10;0.57;;;;;;;23.31;41.88;101916.11;1690497;84;21641;-80
2022/08/06 10:51:32;;;;;;;2.15;0.70;;;;;;;23.44;42.11;101916.44;1627387;85;21143;-83
2022/08/06 10:53:59;;;;;;;2.67;0.70;;;;;;;23.63;41.92;101923.42;1696804;84;21663;-82
2022/08/06 10:56:26;;;;;;;4.28;0.78;;;;;;;23.62;41.51;101934.18;1681992;84;21074;-82
2022/08/06 10:58:53;;;;;;;2.90;0.50;;;;;;;23.38;41.46;101928.59;1687810;84;21761;-82
2022/08/06 11:01:37;;;;;;;2.00;0.70;;;;;;;23.23;41.62;101935.88;1675845;85;21645;-82
2022/08/06 11:04:18;;;;;;;1.80;0.82;;;;;;;23.05;40.90;101949.48;1676908;84;21123;-82
2022/08/06 11:07:25;;;;;;;2.40;0.93;;;;;;;22.63;41.79;101934.95;1684836;84;21087;-81
2022/08/06 11:10:01;;;;;;;3.95;0.88;;;;;;;22.57;42.01;101943.50;1732112;81;21094;-81
2022/08/06 11:12:50;;;;;;;2.87;0.68;;;;;;;22.45;42.09;101944.02;1736631;81;21768;-80
2022/08/06 11:15:18;;;;;;;1.10;0.45;;;;;;;22.45;41.51;101947.16;1731733;81;21130;-81
2022/08/06 11:17:48;;;;;;;3.85;0.78;;;;;;;22.28;41.15;101939.16;1732114;82;21623;-80
2022/08/06 11:20:36;;;;;;;0.75;0.65;;;;;;;22.25;41.34;101933.37;1720418;82;21129;-81
2022/08/06 11:23:17;;;;;;;1.52;0.37;;;;;;;22.26;41.57;101935.59;1693398;84;21058;-81
2022/08/06 11:25:52;;;;;;;3.35;0.75;;;;;;;22.23;41.30;101939.62;1686466;84;21834;-81
2022/08/06 11:28:37;;;;;;;2.02;0.85;;;;;;;22.16;41.56;101943.22;1690689;84;21074;-81
2022/08/06 11:31:05;;;;;;;3.67;2.20;;;;;;;22.12;41.24;101925.79;1692040;84;21091;-82
2022/08/06 11:33:40;;;;;;;1.50;0.65;;;;;;;22.13;40.97;101936.97;1697112;84;21154;-82
2022/08/06 11:36:15;;;;;;;4.97;1.05;;;;;;;22.17;40.96;101926.21;1690476;84;21624;-81
2022/08/06 11:38:47;;;;;;;2.92;1.67;;;;;;;22.23;40.78;101931.11;1695677;84;21753;-81
2022/08/06 11:41:21;;;;;;;4.20;0.50;;;;;;;22.21;40.53;101930.69;1689353;84;21387;-82
2022/08/06 11:44:00;;;;;;;3.65;1.45;;;;;;;22.18;40.53;101928.89;1683967;84;21111;-81
2022/08/06 11:46:28;;;;;;;8.03;0.82;;;;;;;22.22;40.46;101933.34;1681542;84;21059;-81
2022/08/06 11:49:11;;;;;;;2.50;0.90;;;;;;;22.23;40.35;101927.55;1690740;84;21106;-81
2022/08/06 11:51:50;;;;;;;3.87;0.70;;;;;;;22.23;40.25;101928.43;1698190;83;21733;-82
2022/08/06 11:54:26;;;;;;;2.98;1.22;;;;;;;22.27;40.54;101920.84;1699398;84;21173;-82
2022/08/06 11:57:04;;;;;;;4.50;1.50;;;;;;;22.37;40.20;101919.00;1695822;84;21606;-82
2022/08/06 11:59:40;;;;;;;1.75;1.10;;;;;;;22.45;40.02;101924.34;1716353;82;21047;-82